createdAt,value
2023-05-25T00:01:39.457Z,100714.85
2023-05-25T00:04:07.308Z,100717.65
2023-05-25T00:06:37.508Z,100719.98
2023-05-25T00:09:05.270Z,100721.06
2023-05-25T00:11:32.937Z,100722.98
2023-05-25T00:14:00.587Z,100723.98
2023-05-25T00:16:28.766Z,100721.72
2023-05-25T00:18:57.771Z,100716.98
2023-05-25T00:21:25.946Z,100715.38
2023-05-25T00:23:53.584Z,100716.38
2023-05-25T00:26:21.731Z,100715.71
2023-05-25T00:28:49.330Z,100723.56
2023-05-25T00:31:17.846Z,100727.77
2023-05-25T00:33:45.979Z,100726.20
2023-05-25T00:36:14.863Z,100725.36
2023-05-25T00:38:44.059Z,100723.33
2023-05-25T00:41:13.267Z,100724.56
2023-05-25T00:43:41.127Z,100726.99
2023-05-25T00:46:09.634Z,100725.98
2023-05-25T00:48:38.395Z,100725.45
2023-05-25T00:51:06.574Z,100726.98
2023-05-25T00:53:34.202Z,100725.72
2023-05-25T00:56:24.216Z,100722.19
2023-05-25T00:58:54.099Z,100725.02
2023-05-25T01:01:22.523Z,100725.65
2023-05-25T01:03:54.228Z,100727.52
2023-05-25T01:06:23.083Z,100727.88
2023-05-25T01:08:53.288Z,100726.40
2023-05-25T01:11:23.266Z,100733.45
2023-05-25T01:13:54.381Z,100727.88
2023-05-25T01:16:22.343Z,100725.95
2023-05-25T01:18:53.034Z,100724.05
2023-05-25T01:21:46.090Z,100720.23
2023-05-25T01:24:23.014Z,100717.87
2023-05-25T01:27:09.871Z,100718.26
2023-05-25T01:29:37.738Z,100722.66
2023-05-25T01:32:05.852Z,100720.45
2023-05-25T01:34:35.115Z,100723.58
2023-05-25T01:37:02.666Z,100719.75
2023-05-25T01:39:30.325Z,100725.80
2023-05-25T01:41:58.829Z,100722.34
2023-05-25T01:44:27.012Z,100723.54
2023-05-25T01:46:59.494Z,100725.77
2023-05-25T01:49:32.642Z,100725.25
2023-05-25T01:52:19.990Z,100725.27
2023-05-25T01:54:51.234Z,100720.41
2023-05-25T01:57:20.095Z,100715.74
2023-05-25T01:59:48.423Z,100713.17
2023-05-25T02:02:17.776Z,100717.20
2023-05-25T02:04:46.254Z,100719.34
2023-05-25T02:07:14.224Z,100719.20
2023-05-25T02:09:41.992Z,100724.77
2023-05-25T02:12:10.183Z,100726.00
2023-05-25T02:14:38.129Z,100728.29
2023-05-25T02:17:05.691Z,100730.55
2023-05-25T02:19:33.862Z,100732.44
2023-05-25T02:22:01.422Z,100732.10
2023-05-25T02:24:29.084Z,100732.77
2023-05-25T02:26:56.767Z,100728.08
2023-05-25T02:29:24.818Z,100726.49
2023-05-25T02:31:52.555Z,100728.55
2023-05-25T02:34:20.039Z,100729.08
2023-05-25T02:36:47.604Z,100734.09
2023-05-25T02:39:15.060Z,100732.90
2023-05-25T02:41:42.912Z,100735.30
2023-05-25T02:44:10.714Z,100732.98
2023-05-25T02:46:38.567Z,100731.35
2023-05-25T02:49:07.128Z,100734.39
2023-05-25T02:51:36.317Z,100732.52
2023-05-25T02:54:04.393Z,100732.74
2023-05-25T02:56:33.487Z,100735.42
2023-05-25T02:59:01.869Z,100733.23
2023-05-25T03:01:35.067Z,100737.62
2023-05-25T03:04:02.840Z,100733.69
2023-05-25T03:06:36.831Z,100737.02
2023-05-25T03:09:14.113Z,100736.33
2023-05-25T03:11:42.317Z,100733.05
2023-05-25T03:14:13.433Z,100734.28
2023-05-25T03:16:42.145Z,100733.73
2023-05-25T03:19:10.912Z,100740.33
2023-05-25T03:21:39.021Z,100734.86
2023-05-25T03:24:07.049Z,100736.30
2023-05-25T03:26:35.734Z,100734.85
2023-05-25T03:29:03.811Z,100731.55
2023-05-25T03:31:33.543Z,100731.88
2023-05-25T03:34:01.691Z,100735.14
2023-05-25T03:36:31.196Z,100737.02
2023-05-25T03:38:59.520Z,100738.00
2023-05-25T03:41:28.000Z,100740.94
2023-05-25T03:43:56.330Z,100740.37
2023-05-25T03:46:25.278Z,100743.41
2023-05-25T03:48:52.991Z,100742.98
2023-05-25T03:51:20.643Z,100741.66
2023-05-25T03:53:48.299Z,100740.33
2023-05-25T03:56:16.109Z,100739.46
2023-05-25T03:58:43.740Z,100741.87
2023-05-25T04:01:12.823Z,100737.11
2023-05-25T04:03:41.010Z,100744.02
2023-05-25T04:06:09.066Z,100746.98
2023-05-25T04:08:36.931Z,100745.96
2023-05-25T04:11:05.638Z,100745.25
2023-05-25T04:13:36.486Z,100743.47
2023-05-25T04:16:05.789Z,100747.00
2023-05-25T04:18:33.921Z,100754.54
2023-05-25T04:21:01.903Z,100754.61
2023-05-25T04:23:29.652Z,100757.63
2023-05-25T04:25:57.943Z,100758.73
2023-05-25T04:28:25.595Z,100763.94
2023-05-25T04:30:59.872Z,100768.62
2023-05-25T04:33:39.016Z,100774.48
2023-05-25T04:36:18.270Z,100781.20
2023-05-25T04:38:48.159Z,100782.42
2023-05-25T04:41:16.459Z,100789.48
2023-05-25T04:44:05.785Z,100791.87
2023-05-25T04:46:39.470Z,100798.70
2023-05-25T04:49:13.465Z,100806.68
2023-05-25T04:51:42.372Z,100813.56
2023-05-25T04:54:09.979Z,100827.56
2023-05-25T04:56:38.158Z,100836.51
2023-05-25T04:59:06.588Z,100850.15
2023-05-25T05:01:41.479Z,100866.09
2023-05-25T05:04:12.542Z,100878.60
2023-05-25T05:06:41.093Z,100894.20
2023-05-25T05:09:12.030Z,100910.22
2023-05-25T05:11:40.109Z,100932.23
2023-05-25T05:14:08.373Z,100956.96
2023-05-25T05:16:37.793Z,100979.77
2023-05-25T05:19:05.659Z,101007.52
2023-05-25T05:21:33.615Z,101036.13
2023-05-25T05:24:03.093Z,101065.21
2023-05-25T05:26:34.265Z,101089.45
2023-05-25T05:29:13.080Z,101119.39
2023-05-25T05:31:41.300Z,101139.05
2023-05-25T05:34:09.076Z,101161.31
2023-05-25T05:36:48.844Z,101178.29
2023-05-25T05:39:24.333Z,101200.42
2023-05-25T05:41:52.398Z,101211.06
2023-05-25T05:44:21.511Z,101216.60
2023-05-25T05:46:49.115Z,101216.44
2023-05-25T05:49:16.820Z,101213.64
2023-05-25T05:51:44.561Z,101209.02
2023-05-25T05:54:12.329Z,101205.30
2023-05-25T05:56:41.007Z,101197.60
2023-05-25T05:59:08.508Z,101188.27
2023-05-25T06:01:37.256Z,101185.21
2023-05-25T06:04:08.187Z,101177.88
2023-05-25T06:06:37.838Z,101158.24
2023-05-25T06:09:07.122Z,101136.80
2023-05-25T06:11:37.652Z,101113.94
2023-05-25T06:14:06.887Z,101092.56
2023-05-25T06:16:34.848Z,101060.43
2023-05-25T06:19:02.656Z,101016.50
2023-05-25T06:21:30.726Z,100984.67
2023-05-25T06:23:58.384Z,100934.51
2023-05-25T06:26:27.479Z,100892.14
2023-05-25T06:28:57.803Z,100848.34
2023-05-25T06:31:25.869Z,100802.27
2023-05-25T06:33:53.454Z,100740.61
2023-05-25T06:36:22.112Z,100682.26
2023-05-25T06:38:50.295Z,100590.48
2023-05-25T06:41:19.287Z,100551.77
2023-05-25T06:43:46.760Z,100530.05
2023-05-25T06:46:26.852Z,100560.00
2023-05-25T06:48:54.377Z,100591.64
2023-05-25T06:51:22.978Z,100598.52
2023-05-25T06:53:50.523Z,100577.14
2023-05-25T06:56:18.153Z,100557.11
2023-05-25T06:58:46.832Z,100511.13
2023-05-25T07:01:14.498Z,100506.12
2023-05-25T07:03:42.364Z,100520.14
2023-05-25T07:06:12.386Z,100532.77
2023-05-25T07:08:39.828Z,100523.11
2023-05-25T07:11:10.772Z,100521.59
2023-05-25T07:13:38.337Z,100526.18
2023-05-25T07:16:06.291Z,100516.02
2023-05-25T07:18:33.964Z,100508.80
2023-05-25T07:21:01.374Z,100509.03
2023-05-25T07:23:28.780Z,100527.54
2023-05-25T07:25:56.231Z,100527.69
2023-05-25T07:28:23.789Z,100516.65
2023-05-25T07:30:51.346Z,100521.66
2023-05-25T07:33:18.915Z,100522.13
2023-05-25T07:35:46.552Z,100509.51
2023-05-25T07:38:14.268Z,100519.98
2023-05-25T07:40:42.414Z,100539.15
2023-05-25T07:43:09.965Z,100559.46
2023-05-25T07:45:37.527Z,100565.26
2023-05-25T07:48:07.404Z,100572.44
2023-05-25T07:50:35.365Z,100598.02
2023-05-25T07:53:02.856Z,100616.34
2023-05-25T07:55:30.417Z,100630.38
2023-05-25T07:57:57.982Z,100626.08
2023-05-25T08:00:25.641Z,100604.55
2023-05-25T08:02:53.356Z,100597.18
2023-05-25T08:05:21.559Z,100596.85
2023-05-25T08:07:49.240Z,100596.17
2023-05-25T08:10:16.793Z,100585.59
2023-05-25T08:12:49.719Z,100582.85
2023-05-25T08:15:17.954Z,100595.25
2023-05-25T08:17:45.966Z,100601.75
2023-05-25T08:20:14.604Z,100587.17
2023-05-25T08:22:43.082Z,100560.58
2023-05-25T08:25:11.298Z,100551.61
2023-05-25T08:27:41.060Z,100539.20
2023-05-25T08:30:09.230Z,100519.66
2023-05-25T08:32:36.930Z,100511.15
2023-05-25T08:35:05.071Z,100510.50
2023-05-25T08:37:32.775Z,100475.16
2023-05-25T08:40:02.530Z,100454.95
2023-05-25T08:42:30.829Z,100467.91
2023-05-25T08:44:59.174Z,100486.96
2023-05-25T08:47:26.979Z,100493.70
2023-05-25T08:49:54.564Z,100479.35
2023-05-25T08:52:23.266Z,100486.81
2023-05-25T08:54:51.674Z,100497.02
2023-05-25T08:57:38.615Z,100486.28
2023-05-25T09:00:12.518Z,100472.52
2023-05-25T09:02:49.187Z,100451.09
2023-05-25T09:05:17.754Z,100444.88
2023-05-25T09:07:45.511Z,100449.98
2023-05-25T09:10:13.313Z,100457.98
2023-05-25T09:12:41.174Z,100462.22
2023-05-25T09:15:10.995Z,100464.33
2023-05-25T09:17:38.856Z,100474.15
2023-05-25T09:20:09.289Z,100495.98
2023-05-25T09:22:37.010Z,100500.60
2023-05-25T09:25:06.605Z,100514.22
2023-05-25T09:27:38.365Z,100536.04
2023-05-25T09:30:06.888Z,100537.81
2023-05-25T09:32:34.806Z,100549.20
2023-05-25T09:35:15.294Z,100572.52
2023-05-25T09:37:44.320Z,100602.98
2023-05-25T09:40:11.953Z,100604.75
2023-05-25T09:42:39.927Z,100610.20
2023-05-25T09:45:08.809Z,100611.41
2023-05-25T09:47:36.880Z,100615.77
2023-05-25T09:50:05.017Z,100617.39
2023-05-25T09:52:33.092Z,100620.00
2023-05-25T09:55:00.579Z,100624.69
2023-05-25T09:57:28.647Z,100628.14
2023-05-25T09:59:56.254Z,100617.52
2023-05-25T10:02:24.430Z,100588.23
2023-05-25T10:04:52.178Z,100542.19
2023-05-25T10:07:20.032Z,100530.43
2023-05-25T10:09:47.894Z,100511.45
2023-05-25T10:12:18.722Z,100497.71
2023-05-25T10:14:46.299Z,100481.60
2023-05-25T10:17:14.179Z,100476.08
2023-05-25T10:19:55.163Z,100473.52
2023-05-25T10:22:29.428Z,100474.30
2023-05-25T10:25:08.583Z,100477.45
2023-05-25T10:27:41.059Z,100467.30
2023-05-25T10:30:12.376Z,100459.38
2023-05-25T10:32:40.026Z,100460.61
2023-05-25T10:35:08.290Z,100444.29
2023-05-25T10:37:35.867Z,100428.09
2023-05-25T10:40:04.635Z,100427.89
2023-05-25T10:42:32.317Z,100425.21
2023-05-25T10:44:59.872Z,100437.46
2023-05-25T10:47:28.255Z,100457.70
2023-05-25T10:49:58.170Z,100484.09
2023-05-25T10:52:29.843Z,100498.83
2023-05-25T10:55:07.418Z,100509.02
2023-05-25T10:57:35.379Z,100516.29
2023-05-25T11:00:08.363Z,100528.25
2023-05-25T11:02:51.542Z,100545.63
2023-05-25T11:05:31.396Z,100543.69
2023-05-25T11:07:59.980Z,100533.53
2023-05-25T11:10:49.093Z,100551.05
2023-05-25T11:13:24.111Z,100558.63
2023-05-25T11:16:18.431Z,100554.45
2023-05-25T11:18:49.733Z,100568.79
2023-05-25T11:21:27.339Z,100563.94
2023-05-25T11:23:59.423Z,100602.73
2023-05-25T11:26:30.180Z,100624.81
2023-05-25T11:29:02.027Z,100636.84
2023-05-25T11:31:37.752Z,100616.62
2023-05-25T11:34:06.653Z,100611.85
2023-05-25T11:36:37.278Z,100598.92
2023-05-25T11:39:11.702Z,100579.98
2023-05-25T11:41:56.351Z,100556.79
2023-05-25T11:44:31.898Z,100542.90
2023-05-25T11:47:09.041Z,100536.74
2023-05-25T11:49:46.240Z,100541.75
2023-05-25T11:52:15.057Z,100564.09
2023-05-25T11:54:42.584Z,100562.27
2023-05-25T12:00:07.197Z,100534.20
2023-05-25T12:02:39.074Z,100533.00
2023-05-25T12:05:11.207Z,100530.01
2023-05-25T12:07:44.052Z,100506.21
2023-05-25T12:10:12.721Z,100494.39
2023-05-25T12:12:50.606Z,100480.73
2023-05-25T12:15:22.521Z,100466.39
2023-05-25T12:17:50.949Z,100453.34
2023-05-25T12:20:19.075Z,100446.19
2023-05-25T12:22:47.115Z,100434.08
2023-05-25T12:25:16.245Z,100431.73
2023-05-25T12:27:44.153Z,100422.69
2023-05-25T12:30:11.887Z,100421.71
2023-05-25T12:33:04.494Z,100417.94
2023-05-25T12:35:46.825Z,100418.80
2023-05-25T12:38:19.165Z,100416.70
2023-05-25T12:40:47.070Z,100415.89
2023-05-25T12:43:17.005Z,100436.05
2023-05-25T12:45:44.793Z,100482.03
2023-05-25T12:48:12.945Z,100551.03
2023-05-25T12:50:57.221Z,100637.33
2023-05-25T12:53:25.687Z,100730.27
2023-05-25T12:56:03.549Z,100826.73
2023-05-25T12:58:31.159Z,100915.48
2023-05-25T13:00:58.748Z,100969.35
2023-05-25T13:03:26.601Z,101000.98
2023-05-25T13:05:54.119Z,101016.98
2023-05-25T13:08:21.732Z,101025.29
2023-05-25T13:10:51.238Z,101026.34
2023-05-25T13:13:18.854Z,101024.55
2023-05-25T13:15:46.513Z,101019.80
2023-05-25T13:18:14.083Z,101015.89
2023-05-25T13:20:42.244Z,101009.19
2023-05-25T13:23:10.622Z,101003.63
2023-05-25T13:25:38.399Z,100993.11
2023-05-25T13:28:06.769Z,100982.26
2023-05-25T13:30:34.428Z,100977.45
2023-05-25T13:33:01.898Z,100974.08
2023-05-25T13:35:45.683Z,100972.98
2023-05-25T13:38:15.725Z,100968.24
2023-05-25T13:40:45.690Z,100969.33
2023-05-25T13:43:13.813Z,100969.90
2023-05-25T13:45:41.342Z,100967.77
2023-05-25T13:48:09.595Z,100969.20
2023-05-25T13:50:37.316Z,100962.98
2023-05-25T13:53:04.886Z,100969.05
2023-05-25T13:55:32.439Z,100972.73
2023-05-25T13:57:59.866Z,100975.55
2023-05-25T14:00:27.868Z,100983.41
2023-05-25T14:02:55.607Z,100998.45
2023-05-25T14:05:23.493Z,101006.69
2023-05-25T14:07:52.252Z,101014.29
2023-05-25T14:10:20.250Z,101021.80
2023-05-25T14:12:47.928Z,101020.08
2023-05-25T14:15:15.536Z,101017.25
2023-05-25T14:17:43.166Z,101012.85
2023-05-25T14:20:16.042Z,101011.83
2023-05-25T14:22:43.876Z,101015.52
2023-05-25T14:25:11.435Z,101013.11
2023-05-25T14:27:38.989Z,101005.79
2023-05-25T14:30:07.510Z,100996.33
2023-05-25T14:32:35.485Z,100981.40
2023-05-25T14:35:03.003Z,100950.95
2023-05-25T14:37:30.658Z,100882.76
2023-05-25T14:39:58.320Z,100814.38
2023-05-25T14:42:25.810Z,100750.15
2023-05-25T14:44:53.339Z,100706.19
2023-05-25T14:47:21.168Z,100651.55
2023-05-25T14:49:48.865Z,100580.83
2023-05-25T14:52:16.536Z,100521.80
2023-05-25T14:54:45.170Z,100463.83
2023-05-25T14:57:14.619Z,100459.33
2023-05-25T14:59:42.935Z,100422.29
2023-05-25T15:02:10.737Z,100394.63
2023-05-25T15:04:38.276Z,100382.96
2023-05-25T15:07:06.323Z,100365.56
2023-05-25T15:09:34.247Z,100363.64
2023-05-25T15:12:02.415Z,100378.47
2023-05-25T15:14:29.987Z,100384.95
2023-05-25T15:16:57.636Z,100392.09
2023-05-25T15:19:25.301Z,100398.70
2023-05-25T15:21:52.761Z,100415.84
2023-05-25T15:24:20.326Z,100442.44
2023-05-25T15:26:47.876Z,100483.53
2023-05-25T15:29:15.640Z,100531.10
2023-05-25T15:31:44.706Z,100575.63
2023-05-25T15:34:12.199Z,100626.44
2023-05-25T15:36:39.812Z,100664.92
2023-05-25T15:39:09.189Z,100695.21
2023-05-25T15:41:37.327Z,100725.05
2023-05-25T15:44:08.472Z,100750.64
2023-05-25T15:46:36.885Z,100779.89
2023-05-25T15:49:11.050Z,100811.55
2023-05-25T15:51:41.780Z,100842.38
2023-05-25T15:54:13.489Z,100868.16
2023-05-25T15:56:42.465Z,100882.14
2023-05-25T15:59:12.425Z,100883.38
2023-05-25T16:01:40.648Z,100886.23
2023-05-25T16:04:08.849Z,100893.95
2023-05-25T16:06:38.623Z,100896.34
2023-05-25T16:09:06.383Z,100900.48
2023-05-25T16:11:34.281Z,100901.85
2023-05-25T16:14:01.904Z,100904.20
2023-05-25T16:16:29.937Z,100910.41
2023-05-25T16:18:57.762Z,100918.70
2023-05-25T16:21:25.506Z,100921.45
2023-05-25T16:23:53.164Z,100917.39
2023-05-25T16:26:22.664Z,100922.23
2023-05-25T16:28:50.225Z,100921.85
2023-05-25T16:31:17.748Z,100925.95
2023-05-25T16:33:46.300Z,100935.90
2023-05-25T16:36:14.351Z,100943.64
2023-05-25T16:38:41.936Z,100951.15
2023-05-25T16:41:09.554Z,100957.77
2023-05-25T16:43:37.219Z,100968.01
2023-05-25T16:46:04.911Z,100971.98
2023-05-25T16:48:32.632Z,100978.08
2023-05-25T16:51:00.267Z,100983.63
2023-05-25T16:53:27.854Z,100985.45
2023-05-25T16:55:55.365Z,100992.52
2023-05-25T16:58:24.300Z,100999.18
2023-05-25T17:00:52.065Z,101002.33
2023-05-25T17:03:19.701Z,101006.28
2023-05-25T17:05:47.391Z,101008.96
2023-05-25T17:08:14.968Z,101012.97
2023-05-25T17:10:49.002Z,101013.48
2023-05-25T17:13:16.719Z,101013.31
2023-05-25T17:15:45.269Z,101011.64
2023-05-25T17:18:13.243Z,101010.05
2023-05-25T17:20:40.953Z,101006.48
2023-05-25T17:23:09.644Z,101004.73
2023-05-25T17:25:39.343Z,101009.41
2023-05-25T17:28:06.886Z,101011.27
2023-05-25T17:30:34.645Z,101018.10
2023-05-25T17:33:02.180Z,101014.40
2023-05-25T17:35:29.970Z,101016.73
2023-05-25T17:37:57.512Z,101011.44
2023-05-25T17:40:25.194Z,101013.77
2023-05-25T17:42:52.760Z,101012.27
2023-05-25T17:45:20.413Z,101009.55
2023-05-25T17:47:48.029Z,101005.56
2023-05-25T17:50:15.772Z,101002.64
2023-05-25T17:52:43.705Z,101004.73
2023-05-25T17:55:11.372Z,101005.65
2023-05-25T17:57:39.234Z,101003.89
2023-05-25T18:00:07.715Z,100999.37
2023-05-25T18:02:40.360Z,100996.91
2023-05-25T18:05:08.693Z,101000.67
2023-05-25T18:07:36.230Z,101002.52
2023-05-25T18:10:03.868Z,101004.20
2023-05-25T18:12:32.156Z,101004.17
2023-05-25T18:14:59.713Z,101000.48
2023-05-25T18:17:27.293Z,100996.45
2023-05-25T18:19:55.291Z,100993.77
2023-05-25T18:22:23.418Z,100991.25
2023-05-25T18:24:51.178Z,100989.29
2023-05-25T18:27:19.145Z,100984.23
2023-05-25T18:29:46.709Z,100981.20
2023-05-25T18:32:14.881Z,100978.02
2023-05-25T18:34:42.460Z,100970.96
2023-05-25T18:37:10.280Z,100970.72
2023-05-25T18:39:37.771Z,100967.36
2023-05-25T18:42:06.343Z,100964.33
2023-05-25T18:44:34.037Z,100966.55
2023-05-25T18:47:02.177Z,100958.50
2023-05-25T18:49:34.752Z,100956.00
2023-05-25T18:52:02.417Z,100948.09
2023-05-25T18:54:29.994Z,100944.83
2023-05-25T18:56:58.144Z,100934.80
2023-05-25T18:59:25.704Z,100927.94
2023-05-25T19:01:53.862Z,100917.38
2023-05-25T19:04:22.140Z,100912.41
2023-05-25T19:06:49.811Z,100902.75
2023-05-25T19:09:17.384Z,100894.87
2023-05-25T19:11:45.239Z,100889.95
2023-05-25T19:14:12.793Z,100887.06
2023-05-25T19:16:41.062Z,100882.97
2023-05-25T19:19:08.735Z,100881.69
2023-05-25T19:21:36.731Z,100877.77
2023-05-25T19:24:05.485Z,100876.10
2023-05-25T19:26:34.274Z,100871.63
2023-05-25T19:29:02.059Z,100872.75
2023-05-25T19:31:29.831Z,100871.05
2023-05-25T19:33:57.562Z,100872.63
2023-05-25T19:36:25.128Z,100872.48
2023-05-25T19:38:52.679Z,100872.48
2023-05-25T19:41:20.338Z,100865.90
2023-05-25T19:43:47.908Z,100865.89
2023-05-25T19:46:15.499Z,100863.46
2023-05-25T19:48:43.148Z,100860.64
2023-05-25T19:51:10.949Z,100863.25
2023-05-25T19:53:38.542Z,100860.81
2023-05-25T19:56:06.384Z,100859.91
2023-05-25T19:58:33.976Z,100856.55
2023-05-25T20:01:01.555Z,100857.27
2023-05-25T20:03:29.253Z,100850.33
2023-05-25T20:05:57.980Z,100852.41
2023-05-25T20:08:26.977Z,100848.27
2023-05-25T20:10:55.728Z,100847.46
2023-05-25T20:13:23.518Z,100846.11
2023-05-25T20:15:51.109Z,100845.43
2023-05-25T20:18:18.943Z,100842.78
2023-05-25T20:20:46.616Z,100839.45
2023-05-25T20:23:14.260Z,100842.58
2023-05-25T20:25:41.745Z,100841.02
2023-05-25T20:28:09.406Z,100836.16
2023-05-25T20:30:37.042Z,100837.59
2023-05-25T20:33:04.605Z,100840.77
2023-05-25T20:35:32.269Z,100836.78
2023-05-25T20:38:00.234Z,100835.22
2023-05-25T20:40:28.228Z,100833.84
2023-05-25T20:42:56.775Z,100831.91
2023-05-25T20:45:24.750Z,100829.46
2023-05-25T20:48:03.076Z,100826.52
2023-05-25T20:50:31.160Z,100828.05
2023-05-25T20:52:59.245Z,100823.84
2023-05-25T20:55:26.805Z,100825.36
2023-05-25T20:57:54.421Z,100821.95
2023-05-25T21:00:23.926Z,100819.30
2023-05-25T21:02:51.532Z,100817.23
2023-05-25T21:05:19.147Z,100816.64
2023-05-25T21:07:46.621Z,100809.96
2023-05-25T21:10:14.139Z,100810.32
2023-05-25T21:12:41.646Z,100803.04
2023-05-25T21:15:09.482Z,100804.29
2023-05-25T21:17:37.252Z,100807.30
2023-05-25T21:20:05.852Z,100804.23
2023-05-25T21:22:33.612Z,100802.86
2023-05-25T21:25:01.031Z,100798.16
2023-05-25T21:27:29.123Z,100795.98
2023-05-25T21:29:56.579Z,100790.59
2023-05-25T21:32:25.358Z,100790.55
2023-05-25T21:34:53.233Z,100790.52
2023-05-25T21:37:21.300Z,100789.77
2023-05-25T21:39:49.375Z,100791.64
2023-05-25T21:42:17.240Z,100789.14
2023-05-25T21:44:44.789Z,100787.20
2023-05-25T21:47:12.700Z,100783.48
2023-05-25T21:49:40.630Z,100783.63
2023-05-25T21:52:20.370Z,100782.89
2023-05-25T21:54:48.029Z,100782.34
2023-05-25T21:57:15.772Z,100779.57
2023-05-25T21:59:43.250Z,100779.10
2023-05-25T22:02:11.819Z,100778.31
2023-05-25T22:04:39.394Z,100771.61
2023-05-25T22:07:07.388Z,100770.30
2023-05-25T22:09:34.920Z,100768.82
2023-05-25T22:12:03.092Z,100765.61
2023-05-25T22:14:31.162Z,100764.52
2023-05-25T22:16:59.391Z,100768.77
2023-05-25T22:19:27.472Z,100774.05
2023-05-25T22:21:55.502Z,100772.40
2023-05-25T22:24:23.030Z,100772.78
2023-05-25T22:26:51.138Z,100772.48
2023-05-25T22:29:18.573Z,100770.78
2023-05-25T22:31:46.240Z,100765.08
2023-05-25T22:34:13.780Z,100765.67
2023-05-25T22:36:41.955Z,100765.75
2023-05-25T22:39:09.357Z,100766.17
2023-05-25T22:41:36.876Z,100774.34
2023-05-25T22:44:04.383Z,100776.81
2023-05-25T22:46:32.022Z,100777.71
2023-05-25T22:48:59.557Z,100776.19
2023-05-25T22:51:27.097Z,100772.77
2023-05-25T22:53:54.656Z,100770.70
2023-05-25T22:56:23.037Z,100768.66
2023-05-25T22:58:50.694Z,100769.92
2023-05-25T23:01:18.175Z,100772.88
2023-05-25T23:03:46.022Z,100776.02
2023-05-25T23:06:13.814Z,100774.91
2023-05-25T23:08:41.487Z,100778.54
2023-05-25T23:11:08.887Z,100773.84
2023-05-25T23:13:37.107Z,100772.65
2023-05-25T23:16:05.540Z,100770.97
2023-05-25T23:18:33.216Z,100770.97
2023-05-25T23:21:01.002Z,100767.89
2023-05-25T23:23:28.948Z,100766.55
2023-05-25T23:25:57.566Z,100768.68
2023-05-25T23:28:25.104Z,100768.69
2023-05-25T23:30:52.766Z,100766.64
2023-05-25T23:33:20.337Z,100767.82
2023-05-25T23:35:47.971Z,100770.63
2023-05-25T23:38:15.960Z,100770.51
2023-05-25T23:40:43.721Z,100765.13
2023-05-25T23:43:13.097Z,100763.43
2023-05-25T23:45:40.738Z,100764.20
2023-05-25T23:48:08.417Z,100768.21
2023-05-25T23:50:36.595Z,100767.71
2023-05-25T23:53:04.167Z,100770.70
2023-05-25T23:55:31.720Z,100769.66
2023-05-25T23:57:59.297Z,100766.54
